SKSPMWCR

Guest
Details From SKSP - GUSTAVO ROJAS PINILLA
To MWCR - Owen Roberts Intl
Flight Number -
Tags generated
Created
Modified
Stats Distance 404 nm / 749 km
Max Altitude 35,000 ft / 10,668 m
Waypoints 5
Social Downloads 2
Likes 0
Share VATSIM

Download

Looking for another format? Having issues loading an existing format? Contact us
Advertisement - Login to hide

Notes

Basic altitude profile: - Ascent Rate: 3000ft/min - Ascent Speed: 250kts - Cruise Altitude: 35000ft - Cruise Speed: 420kts - Descent Rate: 1500ft/min - Descent Speed: 250kts Options: - Use NATs: yes - Use PACOTS: yes - Use low airways: no - Use high airways: yes

Route

SKSP SPP UG448 GCM MWCR

ID Type Via Altitude Latitude Longitude Leg Dist Tot Dist Heading (true) Name
O SKSP APT - 0 ft / 0 m 12.58359˚ -81.71119˚ - 0 nm - GUSTAVO ROJAS PINILLA
SPP VOR - 100 ft / 30 m 12.58250˚ -81.70500˚ 0 nm 0 nm 100° / 100° SAN ANDRES VOR-DME
LEVOR FIX UG448 (AWY-HI) 35,000 ft / 10,668 m 15.00000˚ -81.58750˚ 145 nm 145 nm 3° / 3° -
GCM DME UG448 (AWY-HI) 23,500 ft / 7,163 m 19.28939˚ -81.37203˚ 257 nm 403 nm 3° / 3° GRAND CAYMAN VOR-DME
O MWCR APT - 0 ft / 0 m 19.29278˚ -81.35776˚ 0 nm 404 nm 76° / 76° Owen Roberts Intl

Altitude Profile

Advertisement - Login to hide

Weather


0- 5 10 15 20 25 30 35+ Temperature / ° C

Clouds and Precipitation
Forecast for 2017-12-16 06:00 UTC. Updated 17 minutes ago

Ground ~20,000 ft ~40,000 ft Winds

SKSP

Details ICAO SKSP (ADZ)
Name GUSTAVO ROJAS PINILLA
Region Colombia
Timezone Unknown (UTC+0.0)
Stats Elevation 19 ft / 6 m (AMSL)
Location 12.583595° -81.711191°
Runways 1
Magnetic Variation 3.677° W

METAR

SKSP 160100Z 36010KT 9999 FEW018 28/25 A2988

Decode

TAF

Not found

Departure Runways

ID Width Length Bearing (true) Bearing (mag) Surface Threshold Offset Overrun Length
06 148 ft / 45 m 7,815 ft / 2,382 m 59.54° 63.22° Asphalt 0 ft / 0 m 0 ft / 0 m
24 148 ft / 45 m 7,815 ft / 2,382 m 239.55° 243.23° Asphalt 0 ft / 0 m 180 ft / 55 m

MWCR

Details ICAO MWCR (GCM)
Name Owen Roberts Intl
Region Cayman Islands
Timezone America/Cayman (UTC-5.0)
Stats Elevation 7 ft / 2 m (AMSL)
Location 19.292776° -81.357760°
Runways 1
Magnetic Variation 4.989° W

METAR

MWCR 160100Z 05006KT 9999 FEW018 26/25 Q1016

Decode

TAF

TAF MWCR 152300Z 1600/1624 12010KT 9999 SCT020 BECMG 1612/1614 07015KT

Decode

Destination Runways

ID Width Length Bearing (true) Bearing (mag) Surface Threshold Offset Overrun Length
08 148 ft / 45 m 7,016 ft / 2,139 m 75.84° 80.83° Asphalt 0 ft / 0 m 0 ft / 0 m
26 148 ft / 45 m 7,016 ft / 2,139 m 255.85° 260.84° Asphalt 400 ft / 122 m 0 ft / 0 m

Popular Alternatives